createdAt,value
2023-01-23T00:01:55.866Z,1012.82
2023-01-23T00:07:00.026Z,1012.84
2023-01-23T00:12:04.298Z,1012.87
2023-01-23T00:17:08.388Z,1012.98
2023-01-23T00:22:12.756Z,1012.93
2023-01-23T00:27:14.812Z,1012.96
2023-01-23T00:32:17.111Z,1013.01
2023-01-23T00:37:21.241Z,1012.97
2023-01-23T00:42:25.436Z,1013.01
2023-01-23T00:47:29.594Z,1013.03
2023-01-23T00:52:33.754Z,1013.14
2023-01-23T00:57:37.893Z,1013.02
2023-01-23T01:02:42.072Z,1013.09
2023-01-23T01:07:46.265Z,1013.10
2023-01-23T01:12:50.408Z,1013.21
2023-01-23T01:17:54.594Z,1013.23
2023-01-23T01:22:58.770Z,1013.32
2023-01-23T01:28:02.909Z,1013.33
2023-01-23T01:33:07.057Z,1013.37
2023-01-23T01:38:11.239Z,1013.36
2023-01-23T01:43:15.382Z,1013.36
2023-01-23T01:48:19.585Z,1013.41
2023-01-23T01:53:23.732Z,1013.60
2023-01-23T01:58:27.913Z,1013.57
2023-01-23T02:03:32.056Z,1013.50
2023-01-23T02:08:36.241Z,1013.41
2023-01-23T02:13:40.422Z,1013.49
2023-01-23T02:18:42.658Z,1013.50
2023-01-23T02:23:46.841Z,1013.53
2023-01-23T02:28:50.987Z,1013.53
2023-01-23T02:33:53.454Z,1013.65
2023-01-23T02:38:57.438Z,1013.70
2023-01-23T02:44:01.583Z,1013.66
2023-01-23T02:49:05.783Z,1013.67
2023-01-23T02:54:09.902Z,1013.71
2023-01-23T02:59:14.108Z,1013.62
2023-01-23T03:04:18.226Z,1013.53
2023-01-23T03:09:22.386Z,1013.50
2023-01-23T03:14:26.594Z,1013.49
2023-01-23T03:19:30.736Z,1013.50
2023-01-23T03:24:34.915Z,1013.48
2023-01-23T03:29:39.063Z,1013.50
2023-01-23T03:34:43.248Z,1013.47
2023-01-23T03:39:47.432Z,1013.43
2023-01-23T03:44:51.554Z,1013.38
2023-01-23T03:49:55.780Z,1013.46
2023-01-23T03:54:59.917Z,1013.48
2023-01-23T04:00:04.057Z,1013.53
2023-01-23T04:05:08.241Z,1013.55
2023-01-23T04:10:13.338Z,1013.59
2023-01-23T04:15:16.551Z,1013.64
2023-01-23T04:20:19.109Z,1013.64
2023-01-23T04:25:22.991Z,1013.78
2023-01-23T04:30:25.422Z,1013.77
2023-01-23T04:35:29.441Z,1013.77
2023-01-23T04:40:33.635Z,1013.78
2023-01-23T04:45:37.868Z,1013.75
2023-01-23T04:50:41.937Z,1013.70
2023-01-23T04:55:46.109Z,1013.62
2023-01-23T05:00:50.304Z,1013.72
2023-01-23T05:05:54.461Z,1013.60
2023-01-23T05:10:58.615Z,1013.64
2023-01-23T05:16:02.791Z,1013.65
2023-01-23T05:21:06.912Z,1013.65
2023-01-23T05:26:11.113Z,1013.71
2023-01-23T05:31:15.432Z,1013.83
2023-01-23T05:36:19.420Z,1013.91
2023-01-23T05:41:25.571Z,1014.01
2023-01-23T05:46:27.851Z,1014.11
2023-01-23T05:51:31.945Z,1014.17
2023-01-23T05:56:36.101Z,1014.22
2023-01-23T06:01:40.273Z,1014.24
2023-01-23T06:06:44.416Z,1014.34
2023-01-23T06:11:48.592Z,1014.35
2023-01-23T06:16:52.736Z,1014.49
2023-01-23T06:21:55.138Z,1014.50
2023-01-23T06:26:59.173Z,1014.53
2023-01-23T06:32:01.448Z,1014.59
2023-01-23T06:37:05.661Z,1014.71
2023-01-23T06:42:09.815Z,1014.76
2023-01-23T06:47:13.928Z,1014.94
2023-01-23T06:52:18.149Z,1015.04
2023-01-23T06:57:22.282Z,1015.00
2023-01-23T07:02:26.479Z,1015.10
2023-01-23T07:07:30.619Z,1015.16
2023-01-23T07:12:34.790Z,1015.20
2023-01-23T07:17:38.942Z,1015.24
2023-01-23T07:22:43.125Z,1015.27
2023-01-23T07:27:47.293Z,1015.33
2023-01-23T07:32:51.429Z,1015.40
2023-01-23T07:37:55.615Z,1015.44
2023-01-23T07:42:59.818Z,1015.52
2023-01-23T07:48:04.092Z,1015.57
2023-01-23T07:53:08.084Z,1015.56
2023-01-23T07:58:12.286Z,1015.59
2023-01-23T08:03:16.455Z,1015.51
2023-01-23T08:08:20.633Z,1015.62
2023-01-23T08:13:24.794Z,1015.80
2023-01-23T08:18:27.074Z,1015.69
2023-01-23T08:23:31.221Z,1015.67
2023-01-23T08:28:33.465Z,1015.67
2023-01-23T08:33:37.645Z,1015.74
2023-01-23T08:38:41.821Z,1015.65
2023-01-23T08:43:46.014Z,1015.75
2023-01-23T08:48:50.163Z,1015.75
2023-01-23T08:53:54.326Z,1015.79
2023-01-23T08:58:58.450Z,1015.87
2023-01-23T09:04:02.646Z,1015.84
2023-01-23T09:09:06.796Z,1016.02
2023-01-23T09:14:10.970Z,1016.08
2023-01-23T09:19:15.127Z,1016.20
2023-01-23T09:24:19.316Z,1016.27
2023-01-23T09:29:23.474Z,1016.35
2023-01-23T09:34:27.618Z,1016.45
2023-01-23T09:39:31.768Z,1016.59
2023-01-23T09:44:35.951Z,1016.79
2023-01-23T09:49:40.121Z,1017.00
2023-01-23T09:54:44.334Z,1017.19
2023-01-23T09:59:59.899Z,1017.32
2023-01-23T10:04:52.598Z,1017.29
2023-01-23T10:09:58.177Z,1017.54
2023-01-23T10:14:59.073Z,1017.64
2023-01-23T10:20:03.199Z,1017.67
2023-01-23T10:25:07.357Z,1017.91
2023-01-23T10:30:11.560Z,1018.14
2023-01-23T10:35:15.744Z,1018.48
2023-01-23T10:40:19.961Z,1018.80
2023-01-23T10:45:24.040Z,1018.94
2023-01-23T10:50:28.176Z,1018.98
2023-01-23T10:55:32.375Z,1019.18
2023-01-23T11:00:36.523Z,1019.35
2023-01-23T11:05:52.036Z,1019.28
2023-01-23T11:10:44.885Z,1019.26
2023-01-23T11:15:49.093Z,1019.19
2023-01-23T11:20:53.233Z,1019.12
2023-01-23T11:25:57.339Z,1019.13
2023-01-23T11:31:13.017Z,1019.26
2023-01-23T11:41:09.864Z,1019.15
2023-01-23T11:46:14.097Z,1019.34
2023-01-23T11:51:18.201Z,1019.27
2023-01-23T11:56:22.348Z,1019.28
2023-01-23T12:01:26.536Z,1019.27
2023-01-23T12:06:28.775Z,1019.31
2023-01-23T12:11:32.988Z,1019.20
2023-01-23T12:16:35.257Z,1019.32
2023-01-23T12:21:39.370Z,1019.31
2023-01-23T12:26:43.553Z,1019.22
2023-01-23T12:31:47.899Z,1019.12
2023-01-23T12:37:08.173Z,1019.11
2023-01-23T12:41:56.019Z,1019.11
2023-01-23T12:47:00.287Z,1019.16
2023-01-23T12:52:04.382Z,1019.17
2023-01-23T12:57:08.522Z,1019.30
2023-01-23T13:02:12.801Z,1019.36
2023-01-23T13:07:16.837Z,1019.39
2023-01-23T13:12:21.039Z,1019.24
2023-01-23T13:17:25.185Z,1019.25
2023-01-23T13:22:32.577Z,1019.13
2023-01-23T13:27:33.566Z,1019.17
2023-01-23T13:32:37.697Z,1019.24
2023-01-23T13:37:41.839Z,1019.22
2023-01-23T13:42:46.017Z,1019.25
2023-01-23T14:23:15.541Z,1019.79
2023-01-23T14:28:17.797Z,1019.85
2023-01-23T14:33:21.957Z,1019.86
2023-01-23T14:38:26.161Z,1020.05
2023-01-23T14:43:30.326Z,1020.30
2023-01-23T14:48:34.459Z,1020.52
2023-01-23T14:53:38.640Z,1020.54
2023-01-23T14:58:42.814Z,1020.61
2023-01-23T15:03:46.979Z,1020.43
2023-01-23T15:08:51.104Z,1020.32
2023-01-23T15:13:55.296Z,1020.34
2023-01-23T15:18:59.472Z,1020.22
2023-01-23T15:24:03.687Z,1020.22
2023-01-23T15:29:05.903Z,1020.26
2023-01-23T15:34:10.055Z,1020.43
2023-01-23T15:39:14.219Z,1020.43
2023-01-23T15:44:18.373Z,1020.52
2023-01-23T15:49:26.117Z,1020.54
2023-01-23T15:54:26.751Z,1020.53
2023-01-23T15:57:37.548Z,1020.56
2023-01-23T16:04:21.235Z,1020.58
2023-01-23T16:09:25.434Z,1020.67
2023-01-23T16:14:29.574Z,1020.54
2023-01-23T16:19:33.751Z,1020.41
2023-01-23T16:24:37.995Z,1020.25
2023-01-23T16:29:42.062Z,1020.01
2023-01-23T16:34:46.236Z,1020.00
2023-01-23T16:39:50.410Z,1019.98
2023-01-23T16:44:54.576Z,1019.85
2023-01-23T16:49:58.743Z,1019.94
2023-01-23T16:55:02.928Z,1020.00
2023-01-23T17:00:07.091Z,1020.04
2023-01-23T17:05:11.213Z,1020.02
2023-01-23T17:10:15.445Z,1020.09
2023-01-23T17:15:19.912Z,1020.17
2023-01-23T17:20:23.736Z,1020.25
2023-01-23T17:25:27.897Z,1020.38
2023-01-23T17:30:32.154Z,1020.30
2023-01-23T17:35:36.188Z,1020.30
2023-01-23T17:40:38.473Z,1020.23
2023-01-23T17:45:42.805Z,1020.19
2023-01-23T17:50:46.839Z,1020.18
2023-01-23T17:55:50.974Z,1020.13
2023-01-23T18:00:55.174Z,1020.05
2023-01-23T18:05:59.305Z,1019.98
2023-01-23T18:11:03.507Z,1020.08
2023-01-23T18:16:07.766Z,1020.08
2023-01-23T18:21:11.785Z,1020.04
2023-01-23T18:26:15.983Z,1019.88
2023-01-23T18:31:20.234Z,1020.05
2023-01-23T18:36:24.343Z,1019.95
2023-01-23T18:41:28.489Z,1019.92
2023-01-23T18:46:32.622Z,1020.01
2023-01-23T18:51:36.828Z,1020.01
2023-01-23T18:56:40.966Z,1019.99
2023-01-23T19:01:45.182Z,1020.06
2023-01-23T19:06:49.321Z,1020.05
2023-01-23T19:11:53.484Z,1020.08
2023-01-23T19:16:57.606Z,1020.18
2023-01-23T19:22:01.771Z,1020.21
2023-01-23T19:27:04.129Z,1020.37
2023-01-23T19:32:08.274Z,1020.41
2023-01-23T19:37:12.376Z,1020.48
2023-01-23T19:42:16.536Z,1020.62
2023-01-23T19:47:20.747Z,1020.61
2023-01-23T19:52:25.025Z,1020.70
2023-01-23T19:57:29.780Z,1020.59
2023-01-23T20:02:33.310Z,1020.68
2023-01-23T20:07:37.356Z,1020.54
2023-01-23T20:12:41.547Z,1020.62
2023-01-23T20:17:45.714Z,1020.61
2023-01-23T20:22:49.849Z,1020.60
2023-01-23T20:27:54.037Z,1020.52
2023-01-23T20:38:02.416Z,1020.53
2023-01-23T20:43:06.543Z,1020.46
2023-01-23T20:48:10.739Z,1020.44
2023-01-23T20:53:14.868Z,1020.35
2023-01-23T20:58:19.052Z,1020.27
2023-01-23T21:03:23.195Z,1020.26
2023-01-23T21:08:27.409Z,1020.18
2023-01-23T21:13:29.634Z,1020.27
2023-01-23T21:18:33.793Z,1020.15
2023-01-23T21:23:36.083Z,1019.93
2023-01-23T21:28:40.232Z,1019.96
2023-01-23T21:33:44.464Z,1020.02
2023-01-23T21:38:48.659Z,1020.17
2023-01-23T21:43:52.798Z,1020.26
2023-01-23T21:48:56.904Z,1020.26
2023-01-23T21:54:01.065Z,1020.41
2023-01-23T21:59:05.231Z,1020.44
2023-01-23T22:04:09.419Z,1020.48
2023-01-23T22:09:13.562Z,1020.42
2023-01-23T22:14:17.681Z,1020.42
2023-01-23T22:19:25.074Z,1020.36
2023-01-23T22:24:26.038Z,1020.25
2023-01-23T22:29:30.183Z,1020.17
2023-01-23T22:34:34.381Z,1020.21
2023-01-23T22:39:38.527Z,1020.23
2023-01-23T22:44:42.690Z,1020.13
2023-01-23T22:49:46.896Z,1020.16
2023-01-23T22:54:51.063Z,1020.08
2023-01-23T22:59:55.176Z,1020.06
2023-01-23T23:04:59.328Z,1020.12
2023-01-23T23:10:01.644Z,1020.09
2023-01-23T23:15:05.790Z,1020.08
2023-01-23T23:20:09.968Z,1020.15
2023-01-23T23:25:14.143Z,1020.13
2023-01-23T23:30:18.276Z,1020.20
2023-01-23T23:35:22.921Z,1020.19
2023-01-23T23:40:26.607Z,1020.26
2023-01-23T23:45:30.841Z,1020.19
2023-01-23T23:50:34.953Z,1020.14
2023-01-23T23:55:39.089Z,1020.25
